createdAt,value
2023-05-31T04:44:42.464Z,11.85
2023-05-31T04:49:54.170Z,11.80
2023-05-31T04:54:52.257Z,9.73
2023-05-31T04:59:50.116Z,9.10
2023-05-31T05:04:49.185Z,8.77
2023-05-31T05:09:46.760Z,8.63
2023-05-31T05:14:44.094Z,9.73
2023-05-31T05:19:41.541Z,9.13
2023-05-31T05:24:38.786Z,9.27
2023-05-31T05:29:36.177Z,7.63
2023-05-31T05:34:33.646Z,7.75
2023-05-31T05:39:31.218Z,7.68
2023-05-31T05:44:28.440Z,7.05
2023-05-31T05:49:26.006Z,7.07
2023-05-31T05:54:23.406Z,6.88
2023-05-31T05:59:21.197Z,7.72
2023-05-31T06:04:18.381Z,7.63
2023-05-31T06:09:15.599Z,7.18
2023-05-31T06:14:12.870Z,7.32
2023-05-31T06:19:10.121Z,5.80
2023-05-31T06:24:07.619Z,6.65
2023-05-31T06:29:05.220Z,6.20
2023-05-31T06:34:02.581Z,5.05
2023-05-31T06:39:00.155Z,4.75
2023-05-31T06:43:57.618Z,5.20
2023-05-31T06:49:00.685Z,5.28
2023-05-31T06:54:09.285Z,5.60
2023-05-31T06:59:06.652Z,5.50
2023-05-31T07:04:04.137Z,4.45
2023-05-31T07:09:01.449Z,4.75
2023-05-31T07:14:02.891Z,4.88
2023-05-31T07:19:00.189Z,5.95
2023-05-31T07:23:57.835Z,5.78
2023-05-31T07:28:55.334Z,5.40
2023-05-31T07:33:52.612Z,5.05
2023-05-31T07:38:49.812Z,4.63
2023-05-31T07:43:47.553Z,4.18
2023-05-31T07:48:44.950Z,4.03
2023-05-31T07:53:42.206Z,4.00
2023-05-31T07:58:39.667Z,3.97
2023-05-31T08:03:37.392Z,3.78
2023-05-31T08:08:35.240Z,3.83
2023-05-31T08:13:32.769Z,4.25
2023-05-31T08:18:30.128Z,4.22
2023-05-31T08:23:27.600Z,5.43
2023-05-31T08:28:24.937Z,4.18
2023-05-31T08:33:22.267Z,4.50
2023-05-31T08:38:19.487Z,4.45
2023-05-31T08:43:21.508Z,4.00
2023-05-31T08:48:25.735Z,3.95
2023-05-31T08:53:26.840Z,4.00
2023-05-31T08:58:25.688Z,3.55
2023-05-31T09:03:27.351Z,3.85
2023-05-31T09:08:25.299Z,3.97
2023-05-31T09:13:23.253Z,3.40
2023-05-31T09:18:22.572Z,3.55
2023-05-31T09:23:20.679Z,3.20
2023-05-31T09:28:23.209Z,3.33
2023-05-31T09:33:23.245Z,2.88
2023-05-31T09:38:20.478Z,3.08
2023-05-31T09:43:17.754Z,3.58
2023-05-31T09:48:15.112Z,2.90
2023-05-31T09:53:19.380Z,3.95
2023-05-31T09:58:33.146Z,3.95
2023-05-31T10:03:32.866Z,4.22
2023-05-31T10:13:30.586Z,3.65
2023-05-31T10:18:31.640Z,4.10
2023-05-31T10:23:31.148Z,3.58
2023-05-31T10:28:32.642Z,3.50
2023-05-31T10:33:31.942Z,4.20
2023-05-31T10:38:35.120Z,4.00
2023-05-31T10:43:45.317Z,3.50
2023-05-31T10:48:56.867Z,4.50
2023-05-31T10:53:56.300Z,4.97
2023-05-31T10:58:53.651Z,4.75
2023-05-31T11:03:53.888Z,4.68
2023-05-31T11:09:06.529Z,5.93
2023-05-31T11:14:04.867Z,5.15
2023-05-31T11:19:07.043Z,4.07
2023-05-31T11:24:07.312Z,4.50
2023-05-31T11:29:05.084Z,4.85
2023-05-31T11:34:25.327Z,4.07
2023-05-31T11:39:22.572Z,4.30
2023-05-31T11:44:30.571Z,5.05
2023-05-31T11:49:28.518Z,4.53
2023-05-31T11:54:30.736Z,4.03
2023-05-31T11:59:28.730Z,4.47
2023-05-31T12:04:36.834Z,4.90
2023-05-31T12:09:35.330Z,4.30
2023-05-31T12:14:34.192Z,4.70
2023-05-31T12:19:34.630Z,4.30
2023-05-31T12:24:32.088Z,5.43
2023-05-31T12:29:31.635Z,4.30
2023-05-31T12:34:31.851Z,4.82
2023-05-31T12:39:29.088Z,4.95
2023-05-31T12:44:27.528Z,5.13
2023-05-31T12:49:26.037Z,5.10
2023-05-31T12:54:26.821Z,4.17
2023-05-31T12:59:24.221Z,4.82
2023-05-31T13:04:21.484Z,4.35
2023-05-31T13:09:19.217Z,4.95
2023-05-31T13:14:21.880Z,5.20
2023-05-31T13:19:19.491Z,4.25
2023-05-31T13:24:16.954Z,4.78
2023-05-31T13:29:14.158Z,4.65
2023-05-31T13:34:11.377Z,4.45
2023-05-31T13:39:08.741Z,4.80
2023-05-31T13:44:06.406Z,4.85
2023-05-31T13:49:04.011Z,5.40
2023-05-31T13:54:01.277Z,4.68
2023-05-31T13:59:00.727Z,5.03
2023-05-31T14:03:58.218Z,5.18
2023-05-31T14:08:57.105Z,5.80
2023-05-31T14:13:54.398Z,5.53
2023-05-31T14:18:53.524Z,4.68
2023-05-31T14:23:53.227Z,4.53
2023-05-31T14:28:50.542Z,5.63
2023-05-31T14:33:47.796Z,6.80
2023-05-31T14:38:45.582Z,4.63
2023-05-31T14:43:42.757Z,5.15
2023-05-31T14:48:41.610Z,5.40
2023-05-31T14:53:38.911Z,4.93
2023-05-31T14:58:36.151Z,4.85
2023-05-31T15:03:33.717Z,5.63
2023-05-31T15:08:32.224Z,5.70
2023-05-31T15:13:31.498Z,5.10
2023-05-31T15:18:28.828Z,4.85
2023-05-31T15:23:26.141Z,4.45
2023-05-31T15:28:23.374Z,5.05
2023-05-31T15:33:21.102Z,4.20
2023-05-31T15:38:18.604Z,5.15
2023-05-31T15:43:18.044Z,4.57
2023-05-31T15:48:16.181Z,4.97
2023-05-31T15:53:13.754Z,5.35
2023-05-31T15:58:11.187Z,4.90
2023-05-31T16:03:08.570Z,5.30
2023-05-31T16:08:06.755Z,4.10
2023-05-31T16:13:07.895Z,4.78
2023-05-31T16:18:05.173Z,4.93
2023-05-31T16:23:03.633Z,4.55
2023-05-31T16:28:01.285Z,4.38
2023-05-31T16:32:58.592Z,5.22
2023-05-31T16:37:56.114Z,4.80
2023-05-31T16:42:55.736Z,5.50
2023-05-31T16:47:53.760Z,5.20
2023-05-31T16:52:53.077Z,4.75
2023-05-31T16:57:50.606Z,5.10
2023-05-31T17:02:48.711Z,5.15
2023-05-31T17:07:46.281Z,5.55
2023-05-31T17:12:44.293Z,5.10
2023-05-31T17:17:42.862Z,5.60
2023-05-31T17:22:41.798Z,5.50
2023-05-31T17:27:39.204Z,5.45
2023-05-31T17:32:36.801Z,4.68
2023-05-31T17:37:35.168Z,5.82
2023-05-31T17:42:32.616Z,5.15
2023-05-31T17:47:30.199Z,5.95
2023-05-31T17:52:28.263Z,4.93
2023-05-31T17:57:25.580Z,5.07
2023-05-31T18:02:26.027Z,5.50
2023-05-31T18:07:23.431Z,5.47
2023-05-31T18:12:20.737Z,4.90
2023-05-31T18:17:18.314Z,5.68
2023-05-31T18:22:15.985Z,6.43
2023-05-31T18:27:19.924Z,5.75
2023-05-31T18:32:20.024Z,5.57
2023-05-31T18:37:17.815Z,5.53
2023-05-31T18:42:15.579Z,5.70
2023-05-31T18:47:13.121Z,5.82
2023-05-31T18:52:10.467Z,5.57
2023-05-31T18:57:07.897Z,6.70
2023-05-31T19:02:05.654Z,6.40
2023-05-31T19:07:02.913Z,5.70
2023-05-31T19:12:00.211Z,6.03
2023-05-31T19:16:57.623Z,5.72
2023-05-31T19:21:54.911Z,7.13
2023-05-31T19:26:53.930Z,5.88
2023-05-31T19:31:51.213Z,6.05
2023-05-31T19:36:48.610Z,5.85
2023-05-31T19:41:48.395Z,5.50
2023-05-31T19:46:45.764Z,7.22
2023-05-31T19:51:43.040Z,5.45
2023-05-31T19:56:40.222Z,6.47
2023-05-31T20:01:37.532Z,6.45
2023-05-31T20:06:34.746Z,6.20
2023-05-31T20:11:32.041Z,7.20
2023-05-31T20:16:29.342Z,6.60
2023-05-31T20:21:27.009Z,7.00
2023-05-31T20:26:25.797Z,7.38
2023-05-31T20:31:24.542Z,6.80
2023-05-31T20:36:22.002Z,6.63
2023-05-31T20:41:19.641Z,7.13
2023-05-31T20:46:17.200Z,7.72
2023-05-31T20:51:14.487Z,7.68
2023-05-31T20:56:12.154Z,7.88
2023-05-31T21:01:09.926Z,7.88
2023-05-31T21:06:07.608Z,7.93
2023-05-31T21:11:08.792Z,7.97
2023-05-31T21:16:06.565Z,7.35
2023-05-31T21:21:03.936Z,7.65
2023-05-31T21:26:02.204Z,8.05
2023-05-31T21:30:59.973Z,6.85
2023-05-31T21:35:57.514Z,7.32
2023-05-31T21:40:54.789Z,8.40
2023-05-31T21:45:52.286Z,8.05
2023-05-31T21:50:49.544Z,8.85
2023-05-31T21:55:47.211Z,9.35
2023-05-31T22:00:44.553Z,7.75
2023-05-31T22:05:41.713Z,8.00
2023-05-31T22:10:39.264Z,8.23
2023-05-31T22:15:36.456Z,10.55
2023-05-31T22:20:35.902Z,8.60
2023-05-31T22:25:33.277Z,8.57
2023-05-31T22:30:30.531Z,10.65
2023-05-31T22:35:28.000Z,9.07
2023-05-31T22:40:25.465Z,9.48
2023-05-31T22:45:23.067Z,8.70
2023-05-31T22:50:20.505Z,9.65
2023-05-31T22:55:18.013Z,9.15
2023-05-31T23:00:16.270Z,10.10
2023-05-31T23:05:14.006Z,9.50
2023-05-31T23:10:14.537Z,10.48
2023-05-31T23:15:12.645Z,9.95
2023-05-31T23:20:14.869Z,9.98
2023-05-31T23:25:13.184Z,9.95
2023-05-31T23:30:12.763Z,10.07
2023-05-31T23:35:10.211Z,10.02
2023-05-31T23:40:08.625Z,9.85
2023-05-31T23:45:06.667Z,12.13
2023-05-31T23:50:04.120Z,12.55
2023-05-31T23:55:01.478Z,10.93
2023-05-31T23:59:59.336Z,10.90
